KMCF/MCF METAR and TAF weather

Enter ICAO airport designator
Station Type Date Time Source
KMCF METAR 2021/09/27 06:56 UTC NOAA

KMCF 270656Z AUTO 10004KT 10SM CLR 23/16 A3005 RMK AO2 SLP178 T02320157 FZRANO $


Station Type Date Time Source
KMCF Decoded METAR 2021/09/27 06:56 UTC NOAA

Macdill Air Force Base, Fl., FL, United States (KMCF) 27-51N 082-30W 4M
Sep 27, 2021 - 02:56 AM EDT / 2021.09.27 0656 UTC
Wind: from the E (100 degrees) at 5 MPH (4 KT):0
Visibility: 10 mile(s):0
Sky conditions: clear
Temperature: 73.8 F (23.2 C)
Dew Point: 60.3 F (15.7 C)
Relative Humidity: 62%
Pressure (altimeter): 30.05 in. Hg (1017 hPa)
ob: KMCF 270656Z AUTO 10004KT 10SM CLR 23/16 A3005 RMK AO2 SLP178 T02320157 FZRANO
cycle: 7

Station Type Date Time Source
KMCF TAF 2021/09/27 01:09 UTC NOAA

TAF KMCF 270100Z 2701/2807 06006KT 9999 SCT030 BKN050 QNH3004INS
BECMG 2705/2706 09006KT 9999 BKN040 QNH3006INS
BECMG 2712/2713 10009KT 9999 FEW030 QNH3010INS TX32/2719Z TN23/2712Z

Example: see airport list